Etusivu
METAR-TAF:

METAR-TAF

Lentoasemat :

Schwäbisch Hall, Saksa

Leveyspiiri: 49-07-06N, Pituuspiiri: 9-47-02E, korkeus merenpinnasta: 398 m

Tämänhetkinen sää

Tämä raportti tehtiin 30 minuuttia sitten, kello 15.20 UTC
Tuuli 10 kn idästä/koillisesta
Lämpötila 14°C
Kosteus 33%
Ilmanpaine 1031 hPa
Näkyvyys 10 km tai enemmän
ei pilviä alle 1500 m:ssä eikä cumulonimbus-pilviä

METAR: EDTY 211520Z 07010KT CAVOK 14/M02 Q1031

Aika: 16:50 (15:50 UTC)

Sääennuste

Tämä raportti tehtiin 1 tunti ja 50 minuuttia sitten, kello 14.00 UTC
Ennuste voimassa 21. päivästä klo 15 UTC - 21. päivään klo 24 UTC
Tuuli 10 kn idästä/koillisesta
Näkyvyys 10 km tai enemmän
ei pilviä alle 1500 m:ssä eikä cumulonimbus-pilviä
Tulossa
21. päivästä klo 17 UTC - 21. päivään klo 19 UTC
Tuuli 3 kn eri suunnista

TAF: EDTY 211400Z 2115/2124 06010KT CAVOK BECMG 2117/2119 VRB03KT

Säähavainnot ja -ennusteet yli 4000 lentoasemalta (METAR- ja TAF-raportit).

Käytössä olevat sääasemat on merkitty karttaan keltaisilla ja punaisilla pisteillä.

Aseta hiiri pisteen päälle nähdäksesi sääaseman nimen.

Klikkaa sitten nähdäksesi säähavainnot ja -ennusteet.

Kartan vaihtaminen: klikkaa mustalla rastilla varustettuja vihreitä pisteitä, niin voit zoomata sisään; viivalla varustettua vihreää pistettä, niin voit zoomata ulos tai vihreitä nuolia, niin pääset viereisille kartoille.


METAR-TAF: